Time;durP1;ratioP1;P1;durP2;ratioP2;P2;SDS_P1;SDS_P2;PMS_P1;PMS_P2;Temp;Humidity;BMP_temperature;BMP_pressure;BME280_temperature;BME280_humidity;BME280_pressure;Samples;Min_cycle;Max_cycle;Signal;HPM_P1;HPM_P2
2021/11/08 00:00:28;;;;;;;11.43;7.35;;;;;;;4.81;100.00;96124.34;1034968;28;20261;-70
2021/11/08 00:01:00;;;;;;;9.02;6.65;;;;;;;4.83;100.00;96118.91;1030669;28;20022;-69
2021/11/08 00:01:31;;;;;;;9.18;6.88;;;;;;;4.83;100.00;96114.53;1026835;28;20274;-69
2021/11/08 00:02:02;;;;;;;8.63;7.00;;;;;;;4.77;100.00;96104.97;1029525;28;20312;-69
2021/11/08 00:02:33;;;;;;;10.32;7.00;;;;;;;4.85;100.00;96119.50;1027020;28;20018;-69
2021/11/08 00:03:08;;;;;;;9.70;6.43;;;;;;;4.79;100.00;96102.16;1028719;28;20674;-70
2021/11/08 00:03:42;;;;;;;8.02;6.85;;;;;;;4.80;100.00;96114.16;1011908;29;20352;-70
2021/11/08 00:04:12;;;;;;;10.50;6.82;;;;;;;4.85;100.00;96117.69;1022865;29;20274;-70
2021/11/08 00:04:43;;;;;;;9.18;6.90;;;;;;;4.86;100.00;96116.69;1026277;28;20266;-70
2021/11/08 00:05:13;;;;;;;9.90;6.72;;;;;;;4.85;100.00;96111.69;1027563;28;20035;-69
2021/11/08 00:05:44;;;;;;;7.78;6.55;;;;;;;4.75;100.00;96101.78;1026764;28;20081;-70
2021/11/08 00:06:16;;;;;;;13.15;7.05;;;;;;;4.83;100.00;96119.72;1023247;28;20446;-68
2021/11/08 00:06:49;;;;;;;8.68;6.18;;;;;;;4.82;100.00;96107.72;1026524;28;20042;-68
2021/11/08 00:07:20;;;;;;;10.18;6.50;;;;;;;4.84;100.00;96107.50;1031628;28;20265;-66
2021/11/08 00:07:55;;;;;;;13.63;8.07;;;;;;;4.81;100.00;96113.94;1034126;28;20415;-67
2021/11/08 00:08:25;;;;;;;10.65;6.82;;;;;;;4.82;100.00;96112.91;1032039;28;20120;-68
2021/11/08 00:08:56;;;;;;;12.00;6.63;;;;;;;4.82;100.00;96118.09;1034723;28;20416;-70
2021/11/08 00:09:26;;;;;;;11.30;6.60;;;;;;;4.78;100.00;96111.75;1035003;28;20021;-70
2021/11/08 00:09:57;;;;;;;9.98;6.68;;;;;;;4.81;100.00;96115.75;1031053;28;20062;-68
2021/11/08 00:10:29;;;;;;;11.13;7.03;;;;;;;4.73;100.00;96103.84;1022712;29;20094;-70
2021/11/08 00:11:00;;;;;;;9.63;6.90;;;;;;;4.75;100.00;96107.00;1017531;29;20032;-67
2021/11/08 00:11:32;;;;;;;9.73;6.47;;;;;;;4.70;100.00;96104.25;1022829;29;20798;-67
2021/11/08 00:12:04;;;;;;;11.48;7.47;;;;;;;4.67;100.00;96109.88;1027237;28;20836;-71
2021/11/08 00:12:35;;;;;;;12.25;7.78;;;;;;;4.70;100.00;96114.66;1028292;28;20273;-67
2021/11/08 00:13:06;;;;;;;8.80;6.60;;;;;;;4.69;100.00;96115.66;1022635;29;20289;-65
2021/11/08 00:13:37;;;;;;;10.10;6.93;;;;;;;4.66;100.00;96111.69;1022901;29;20039;-68
2021/11/08 00:14:11;;;;;;;10.98;7.57;;;;;;;4.66;100.00;96113.47;1026513;28;20281;-71
2021/11/08 00:14:43;;;;;;;10.38;6.95;;;;;;;4.64;100.00;96124.09;1022058;28;20039;-67
2021/11/08 00:15:17;;;;;;;10.48;7.68;;;;;;;4.63;100.00;96113.94;1027332;28;20863;-67
2021/11/08 00:16:47;;;;;;;14.88;6.80;;;;;;;4.63;100.00;96119.13;1030903;28;20595;-68
2021/11/08 00:17:38;;;;;;;11.48;6.97;;;;;;;4.61;100.00;96121.94;1030698;28;20273;-68
2021/11/08 00:19:20;;;;;;;12.32;7.07;;;;;;;4.63;100.00;96119.13;1024909;28;20029;-68
2021/11/08 00:20:54;;;;;;;9.68;6.90;;;;;;;4.64;100.00;96120.72;1022459;29;20267;-69
2021/11/08 00:21:29;;;;;;;9.30;6.80;;;;;;;4.63;100.00;96122.53;1015066;29;20282;-70
2021/11/08 00:22:01;;;;;;;10.95;7.05;;;;;;;4.66;100.00;96123.88;1017643;28;21082;-68
2021/11/08 00:22:35;;;;;;;12.15;7.35;;;;;;;4.65;100.00;96124.91;1026789;28;20278;-67
2021/11/08 00:23:08;;;;;;;10.65;6.68;;;;;;;4.66;100.00;96131.66;1028084;28;20277;-68
2021/11/08 00:23:39;;;;;;;10.27;7.05;;;;;;;4.67;100.00;96126.28;1027759;28;20302;-69
2021/11/08 00:24:12;;;;;;;10.85;6.82;;;;;;;4.67;100.00;96126.28;1026617;28;20693;-69
2021/11/08 00:24:47;;;;;;;9.05;6.97;;;;;;;4.66;100.00;96123.88;1018854;29;20043;-69
2021/11/08 00:25:18;;;;;;;9.18;6.88;;;;;;;4.70;100.00;96125.06;1020931;29;20286;-71
2021/11/08 00:25:48;;;;;;;10.52;6.80;;;;;;;4.65;100.00;96124.91;1019402;29;20996;-70
2021/11/08 00:26:19;;;;;;;9.52;6.70;;;;;;;4.71;100.00;96131.84;1019864;29;20443;-70
2021/11/08 00:26:50;;;;;;;10.82;7.35;;;;;;;4.67;100.00;96122.88;1022902;28;20039;-69
2021/11/08 00:27:20;;;;;;;9.70;6.97;;;;;;;4.73;100.00;96130.63;1026632;28;20128;-69
2021/11/08 00:27:51;;;;;;;11.95;7.53;;;;;;;4.74;100.00;96128.81;1021945;29;20287;-69
2021/11/08 00:28:21;;;;;;;10.00;7.55;;;;;;;4.75;100.00;96130.38;1024883;28;20034;-69
2021/11/08 00:28:52;;;;;;;12.75;7.85;;;;;;;4.70;100.00;96131.03;1026834;28;20031;-70
2021/11/08 00:29:22;;;;;;;9.23;6.90;;;;;;;4.75;100.00;96133.00;1026816;28;20109;-67
2021/11/08 00:29:53;;;;;;;12.68;7.07;;;;;;;4.74;100.00;96136.59;1026630;28;20035;-69
2021/11/08 00:30:24;;;;;;;10.85;8.10;;;;;;;4.76;100.00;96134.56;1025245;28;20042;-69
2021/11/08 00:30:54;;;;;;;10.18;6.78;;;;;;;4.76;100.00;96133.78;1026751;28;20042;-69
2021/11/08 00:31:25;;;;;;;8.27;6.57;;;;;;;4.78;100.00;96140.34;1026661;28;20034;-69
2021/11/08 00:31:55;;;;;;;9.30;7.20;;;;;;;4.78;100.00;96142.97;1022513;28;20031;-70
2021/11/08 00:32:26;;;;;;;9.85;7.28;;;;;;;4.80;100.00;96138.34;1027559;28;20422;-69
2021/11/08 00:32:57;;;;;;;11.30;7.43;;;;;;;4.81;100.00;96141.75;1030866;28;20038;-69
2021/11/08 00:33:27;;;;;;;11.85;7.57;;;;;;;4.78;100.00;96137.75;1030625;28;20033;-68
2021/11/08 00:33:58;;;;;;;10.38;7.43;;;;;;;4.81;100.00;96139.13;1030542;28;20713;-69
2021/11/08 00:34:28;;;;;;;10.48;6.82;;;;;;;4.77;100.00;96136.19;1026519;28;20105;-69
2021/11/08 00:34:59;;;;;;;10.15;6.95;;;;;;;4.85;100.00;96142.88;1022486;29;20154;-70
2021/11/08 00:35:30;;;;;;;8.90;7.13;;;;;;;4.83;100.00;96143.13;1027994;28;20030;-70
2021/11/08 00:36:00;;;;;;;10.90;6.65;;;;;;;4.85;100.00;96138.47;1030253;28;20269;-71
2021/11/08 00:36:31;;;;;;;10.75;7.50;;;;;;;4.82;100.00;96144.09;1031023;28;20121;-69
2021/11/08 00:37:01;;;;;;;11.90;7.03;;;;;;;4.81;100.00;96142.53;1033022;28;20045;-69
2021/11/08 00:37:33;;;;;;;9.80;6.93;;;;;;;4.82;100.00;96144.09;1031950;28;20049;-69
2021/11/08 00:38:04;;;;;;;12.80;7.38;;;;;;;4.83;100.00;96144.91;1033626;28;20121;-69
2021/11/08 00:38:34;;;;;;;13.82;7.25;;;;;;;4.83;100.00;96145.72;1026496;28;20820;-70
2021/11/08 00:39:05;;;;;;;9.70;7.32;;;;;;;4.85;100.00;96143.69;1022096;29;20278;-68
2021/11/08 00:39:36;;;;;;;11.25;7.30;;;;;;;4.87;100.00;96146.09;1022909;28;20194;-66
2021/11/08 00:40:07;;;;;;;10.75;7.13;;;;;;;4.83;100.00;96144.91;1026623;28;20026;-70
2021/11/08 00:40:38;;;;;;;12.15;7.03;;;;;;;4.85;100.00;96143.69;1023635;28;20289;-69
2021/11/08 00:41:09;;;;;;;12.60;6.85;;;;;;;4.85;100.00;96148.88;1021818;28;20279;-70
2021/11/08 00:41:39;;;;;;;12.90;8.18;;;;;;;4.82;100.00;96144.09;1030804;28;20284;-68
2021/11/08 00:42:10;;;;;;;9.82;7.00;;;;;;;4.81;100.00;96139.94;1022587;28;20027;-67
2021/11/08 00:42:40;;;;;;;11.25;7.40;;;;;;;4.87;100.00;96149.47;1026267;28;20056;-68
2021/11/08 00:43:12;;;;;;;9.68;7.30;;;;;;;4.87;100.00;96146.88;1017487;29;20044;-70
2021/11/08 00:43:42;;;;;;;13.05;7.55;;;;;;;4.82;100.00;96144.09;1019093;29;20114;-68
2021/11/08 00:44:13;;;;;;;11.00;7.30;;;;;;;4.88;100.00;96152.84;1015051;29;20288;-69
2021/11/08 00:44:43;;;;;;;11.60;7.65;;;;;;;4.85;100.00;96143.69;1021801;28;20058;-69
2021/11/08 00:45:14;;;;;;;9.55;7.05;;;;;;;4.86;100.00;96147.06;1027172;28;20046;-68
2021/11/08 00:45:44;;;;;;;10.00;7.47;;;;;;;4.88;100.00;96147.66;1023640;28;20503;-69
2021/11/08 00:46:15;;;;;;;12.43;7.97;;;;;;;4.84;100.00;96149.91;1028056;28;20043;-69
2021/11/08 00:46:45;;;;;;;10.35;7.95;;;;;;;4.86;100.00;96153.09;1030835;28;20030;-66
2021/11/08 00:47:19;;;;;;;11.18;7.20;;;;;;;4.86;100.00;96153.09;1029250;28;20305;-70
2021/11/08 00:47:50;;;;;;;11.55;7.32;;;;;;;4.80;100.00;96140.94;1029935;28;20268;-68
2021/11/08 00:48:24;;;;;;;12.73;7.68;;;;;;;4.87;100.00;96149.47;1026174;28;20588;-68
2021/11/08 00:48:54;;;;;;;10.00;6.88;;;;;;;4.87;100.00;96151.28;1018601;29;20593;-70
2021/11/08 00:49:26;;;;;;;12.52;7.70;;;;;;;4.86;100.00;96152.28;1022945;29;20266;-69
2021/11/08 00:49:57;;;;;;;10.43;7.80;;;;;;;4.83;100.00;96150.91;1019541;29;20102;-69
2021/11/08 00:50:31;;;;;;;10.13;7.20;;;;;;;4.82;100.00;96143.31;1019148;28;20713;-67
2021/11/08 00:51:02;;;;;;;10.07;7.32;;;;;;;4.76;100.00;96137.16;1023570;28;20361;-68
2021/11/08 00:51:37;;;;;;;10.07;6.97;;;;;;;4.84;100.00;96149.09;1023676;28;20270;-67
2021/11/08 00:52:09;;;;;;;10.63;7.85;;;;;;;4.81;100.00;96145.13;1026867;28;20070;-67
2021/11/08 00:52:39;;;;;;;10.27;7.78;;;;;;;4.83;100.00;96145.72;1027551;28;20876;-67
2021/11/08 00:53:10;;;;;;;11.63;7.43;;;;;;;4.84;100.00;96146.50;1025636;28;20338;-67
2021/11/08 00:53:41;;;;;;;11.82;7.13;;;;;;;4.82;100.00;96143.31;1026710;28;20078;-70
2021/11/08 00:54:14;;;;;;;10.00;7.10;;;;;;;4.81;100.00;96147.72;1020103;29;20040;-70
2021/11/08 00:54:44;;;;;;;10.93;7.10;;;;;;;4.82;100.00;96153.72;1019701;28;20043;-69
2021/11/08 00:55:15;;;;;;;9.65;7.30;;;;;;;4.82;100.00;96151.91;1027303;28;20278;-70
2021/11/08 00:55:46;;;;;;;9.43;7.47;;;;;;;4.81;100.00;96141.75;1026409;28;20129;-70
2021/11/08 00:56:19;;;;;;;9.77;7.43;;;;;;;4.63;100.00;96116.53;1023196;28;20037;-71
2021/11/08 00:56:53;;;;;;;13.63;8.07;;;;;;;4.78;100.00;96145.56;1022416;29;20278;-69
2021/11/08 00:57:28;;;;;;;35.38;9.80;;;;;;;4.78;100.00;96144.78;1024760;28;20362;-67
2021/11/08 00:58:00;;;;;;;13.90;7.65;;;;;;;4.76;100.00;96149.38;1027655;28;20304;-70
2021/11/08 00:58:36;;;;;;;10.10;7.50;;;;;;;4.77;100.00;96150.97;1030900;28;20269;-70
2021/11/08 00:59:07;;;;;;;9.93;7.05;;;;;;;4.67;100.00;96133.28;1028083;28;20286;-69
2021/11/08 00:59:38;;;;;;;12.57;7.57;;;;;;;4.73;100.00;96150.63;1025346;28;20266;-68
2021/11/08 01:00:09;;;;;;;11.10;7.70;;;;;;;4.72;100.00;96143.81;1023574;28;20059;-69
2021/11/08 01:00:40;;;;;;;10.23;7.57;;;;;;;4.72;100.00;96152.41;1022900;29;20050;-70
2021/11/08 01:01:12;;;;;;;9.27;7.13;;;;;;;4.68;100.00;96142.66;1027026;28;20293;-69
2021/11/08 01:01:45;;;;;;;15.13;8.30;;;;;;;4.71;100.00;96148.22;1031799;28;20121;-70
2021/11/08 01:02:17;;;;;;;11.93;8.02;;;;;;;4.66;100.00;96139.47;1026807;28;20376;-69
2021/11/08 01:02:48;;;;;;;11.27;7.65;;;;;;;4.72;100.00;96149.00;1022202;28;20275;-69
2021/11/08 01:03:21;;;;;;;10.35;6.80;;;;;;;4.69;100.00;96142.47;1019540;29;20275;-70
2021/11/08 01:03:52;;;;;;;10.60;7.25;;;;;;;4.69;100.00;96147.66;1028803;28;20074;-69
2021/11/08 01:04:24;;;;;;;10.18;7.40;;;;;;;4.68;100.00;96147.84;1029008;28;20657;-69
2021/11/08 01:04:56;;;;;;;9.20;7.47;;;;;;;4.70;100.00;96153.66;1022256;29;20683;-69
2021/11/08 01:05:26;;;;;;;12.40;8.15;;;;;;;4.69;100.00;96157.25;1021023;28;21066;-70
2021/11/08 01:05:57;;;;;;;9.25;7.07;;;;;;;4.70;100.00;96151.06;1023640;28;20282;-71
2021/11/08 01:06:27;;;;;;;11.68;7.90;;;;;;;4.69;100.00;96159.84;1031534;28;20038;-70
2021/11/08 01:07:00;;;;;;;16.15;8.10;;;;;;;4.63;100.00;96153.72;1034381;28;20505;-71
2021/11/08 01:07:30;;;;;;;11.60;7.07;;;;;;;4.67;100.00;96146.28;1018402;29;20243;-69
2021/11/08 01:08:01;;;;;;;13.43;7.97;;;;;;;4.64;100.00;96150.09;1021600;29;20285;-67
2021/11/08 01:08:31;;;;;;;8.75;7.22;;;;;;;4.69;100.00;96154.63;1024015;28;20027;-68
2021/11/08 01:09:03;;;;;;;11.30;7.55;;;;;;;4.68;100.00;96160.84;1018539;29;20035;-68
2021/11/08 01:09:33;;;;;;;10.57;7.60;;;;;;;4.69;100.00;96158.06;1014461;29;20642;-67
2021/11/08 01:10:06;;;;;;;11.55;8.05;;;;;;;4.70;100.00;96162.25;1015055;29;20275;-68
2021/11/08 01:10:36;;;;;;;10.52;8.20;;;;;;;4.67;100.00;96154.06;1019295;29;20593;-67
2021/11/08 01:11:06;;;;;;;9.93;7.55;;;;;;;4.69;100.00;96165.03;1020947;28;20283;-68
2021/11/08 01:11:37;;;;;;;12.40;8.32;;;;;;;4.69;100.00;96159.84;1018778;29;20074;-69
2021/11/08 01:12:08;;;;;;;13.65;8.00;;;;;;;4.63;100.00;96161.50;1018830;29;20034;-70
2021/11/08 01:12:38;;;;;;;11.77;8.27;;;;;;;4.70;100.00;96161.44;1026707;28;20030;-69
2021/11/08 01:13:09;;;;;;;11.75;7.60;;;;;;;4.66;100.00;96160.25;1026779;28;20074;-69
2021/11/08 01:13:40;;;;;;;9.75;7.75;;;;;;;4.64;100.00;96154.50;1026714;28;20112;-69
2021/11/08 01:14:11;;;;;;;10.70;8.02;;;;;;;4.69;100.00;96159.84;1022940;29;20430;-70
2021/11/08 01:14:41;;;;;;;12.00;7.60;;;;;;;4.68;100.00;96158.25;1018719;29;20267;-70
2021/11/08 01:15:12;;;;;;;10.02;8.02;;;;;;;4.68;100.00;96158.25;1019045;29;20031;-70
2021/11/08 01:15:43;;;;;;;12.18;8.00;;;;;;;4.64;100.00;96146.69;1021580;28;20054;-70
2021/11/08 01:16:13;;;;;;;11.07;7.68;;;;;;;4.69;100.00;96152.03;1018929;29;20318;-70
2021/11/08 01:16:45;;;;;;;10.93;7.35;;;;;;;4.71;100.00;96150.81;1018891;29;20039;-70
2021/11/08 01:17:16;;;;;;;11.85;7.53;;;;;;;4.71;100.00;96150.81;1018903;29;20036;-70
2021/11/08 01:17:46;;;;;;;11.20;7.25;;;;;;;4.69;100.00;96150.25;1019051;28;20680;-70
2021/11/08 01:18:18;;;;;;;15.68;7.97;;;;;;;4.69;100.00;96152.84;1022799;29;20035;-71
2021/11/08 01:18:52;;;;;;;11.27;8.15;;;;;;;4.67;100.00;96149.66;1022689;29;20182;-70
2021/11/08 01:19:24;;;;;;;12.48;8.38;;;;;;;4.68;100.00;96147.84;1023518;28;20255;-68
2021/11/08 01:19:54;;;;;;;9.85;7.32;;;;;;;4.68;100.00;96147.84;1027342;28;20266;-69
2021/11/08 01:20:31;;;;;;;12.30;8.45;;;;;;;4.60;100.00;96137.75;1030811;28;20260;-70
2021/11/08 01:21:02;;;;;;;15.00;8.23;;;;;;;4.62;100.00;96143.50;1026871;28;20037;-70
2021/11/08 01:21:34;;;;;;;14.23;7.88;;;;;;;4.68;100.00;96143.44;1022452;28;20270;-70
2021/11/08 01:22:06;;;;;;;9.13;7.55;;;;;;;4.66;100.00;96140.28;1014767;29;20547;-69
2021/11/08 01:22:38;;;;;;;13.55;8.77;;;;;;;4.62;100.00;96143.50;1026867;28;20301;-69
2021/11/08 01:23:08;;;;;;;12.55;8.45;;;;;;;4.67;100.00;96151.47;1017513;29;20279;-70
2021/11/08 01:23:39;;;;;;;13.73;8.40;;;;;;;4.66;100.00;96149.88;1019413;29;20893;-69
2021/11/08 01:24:10;;;;;;;12.80;7.85;;;;;;;4.68;100.00;96156.44;1022747;28;20566;-70
2021/11/08 01:24:40;;;;;;;9.60;7.70;;;;;;;4.65;100.00;96158.69;1018920;28;20036;-69
2021/11/08 01:25:11;;;;;;;10.73;7.97;;;;;;;4.67;100.00;96154.06;1026815;28;20162;-69
2021/11/08 01:25:42;;;;;;;9.30;7.75;;;;;;;4.59;100.00;96144.72;1026675;28;20035;-70
2021/11/08 01:26:14;;;;;;;11.75;8.30;;;;;;;4.64;100.00;96157.88;1026634;28;20113;-69
2021/11/08 01:26:47;;;;;;;9.95;8.05;;;;;;;4.64;100.00;96159.69;1027053;28;20474;-69
2021/11/08 01:27:22;;;;;;;12.65;8.45;;;;;;;4.63;100.00;96148.50;1026720;28;20370;-71
2021/11/08 01:27:55;;;;;;;13.00;8.48;;;;;;;4.62;100.00;96159.09;1014239;29;20283;-70
2021/11/08 01:28:59;;;;;;;12.25;8.07;;;;;;;4.63;100.00;96155.53;1018603;29;20786;-70
2021/11/08 01:29:23;;;;;;;11.63;8.02;;;;;;;4.65;100.00;96163.88;1018040;29;20370;-70
2021/11/08 01:29:53;;;;;;;10.95;8.32;;;;;;;4.62;100.00;96162.50;1029041;28;20262;-67
2021/11/08 01:30:24;;;;;;;12.68;8.27;;;;;;;4.62;100.00;96157.28;1023061;28;20035;-69
2021/11/08 01:30:55;;;;;;;12.13;8.57;;;;;;;4.61;100.00;96157.53;1023075;28;20545;-69
2021/11/08 01:31:26;;;;;;;12.85;8.93;;;;;;;4.63;100.00;96158.91;1026809;28;20333;-70
2021/11/08 01:31:56;;;;;;;13.45;8.15;;;;;;;4.64;100.00;96163.09;1027053;28;20031;-70
2021/11/08 01:32:27;;;;;;;14.80;8.43;;;;;;;4.62;100.00;96159.09;1030661;28;20094;-70
2021/11/08 01:33:06;;;;;;;10.48;8.00;;;;;;;4.62;100.00;96157.28;1030876;28;20030;-68
2021/11/08 01:33:38;;;;;;;11.35;7.90;;;;;;;4.56;100.00;96147.78;1032350;28;20583;-70
2021/11/08 01:34:09;;;;;;;11.73;7.68;;;;;;;4.56;100.00;96154.75;1030538;28;20277;-67
2021/11/08 01:34:40;;;;;;;11.45;8.30;;;;;;;4.56;100.00;96158.19;1030742;28;20339;-68
2021/11/08 01:35:12;;;;;;;10.02;7.85;;;;;;;4.62;100.00;96170.28;1030674;28;20293;-69
2021/11/08 01:35:45;;;;;;;11.40;7.63;;;;;;;4.62;100.00;96170.28;1030331;28;20034;-68
2021/11/08 01:36:20;;;;;;;11.82;8.27;;;;;;;4.56;100.00;96157.34;1026076;28;20289;-70
2021/11/08 01:36:54;;;;;;;10.18;7.85;;;;;;;4.64;100.00;96178.69;1029130;28;20270;-69
2021/11/08 01:37:24;;;;;;;11.02;7.70;;;;;;;4.52;100.00;96148.41;1028980;28;20317;-69
2021/11/08 01:38:03;;;;;;;16.52;8.98;;;;;;;4.67;100.00;96182.66;1022063;29;20607;-70
2021/11/08 01:38:39;;;;;;;11.50;8.38;;;;;;;4.66;100.00;96174.06;1023293;28;20038;-70
2021/11/08 01:39:19;;;;;;;11.73;7.72;;;;;;;4.68;100.00;96179.06;1023024;28;20692;-70
2021/11/08 01:39:50;;;;;;;14.10;8.70;;;;;;;4.69;100.00;96176.25;1034075;28;20273;-71
2021/11/08 01:40:20;;;;;;;9.57;7.80;;;;;;;4.69;100.00;96175.44;1031591;28;20027;-70
2021/11/08 01:40:51;;;;;;;12.90;8.27;;;;;;;4.63;100.00;96165.91;1032770;28;20045;-70
2021/11/08 01:41:23;;;;;;;15.45;8.52;;;;;;;4.63;100.00;96166.69;1038914;28;20538;-70
2021/11/08 01:41:53;;;;;;;18.33;7.97;;;;;;;4.72;100.00;96180.19;1027338;28;20141;-69
2021/11/08 01:42:24;;;;;;;15.15;8.90;;;;;;;4.71;100.00;96170.81;1026725;28;20270;-70
2021/11/08 01:42:55;;;;;;;14.95;8.70;;;;;;;4.73;100.00;96181.81;1010874;29;20063;-69
2021/11/08 01:43:25;;;;;;;11.65;8.40;;;;;;;4.72;100.00;96172.41;1013043;29;20052;-69
2021/11/08 01:43:56;;;;;;;11.13;8.48;;;;;;;4.75;100.00;96179.00;1014917;29;20067;-69
2021/11/08 01:44:28;;;;;;;12.65;8.20;;;;;;;4.74;100.00;96178.19;1018900;28;20035;-69
2021/11/08 01:44:59;;;;;;;11.30;8.50;;;;;;;4.72;100.00;96175.78;1029727;28;20030;-70
2021/11/08 01:45:29;;;;;;;12.23;8.25;;;;;;;4.66;100.00;96168.06;1022763;28;20813;-70
2021/11/08 01:46:01;;;;;;;11.05;7.38;;;;;;;4.74;100.00;96180.78;1026654;28;20022;-70
2021/11/08 01:46:31;;;;;;;11.90;8.27;;;;;;;4.73;100.00;96177.41;1022956;28;20031;-70
2021/11/08 01:47:02;;;;;;;13.20;7.50;;;;;;;4.75;100.00;96179.00;1026201;28;20348;-70
2021/11/08 01:47:32;;;;;;;11.63;8.65;;;;;;;4.74;100.00;96178.19;1025626;28;20159;-70
2021/11/08 01:48:04;;;;;;;13.95;8.13;;;;;;;4.75;100.00;96179.78;1019758;28;20031;-69
2021/11/08 01:48:34;;;;;;;10.10;7.65;;;;;;;4.75;100.00;96182.38;1024078;28;20027;-69
2021/11/08 01:49:05;;;;;;;11.15;8.25;;;;;;;4.73;100.00;96182.59;1030125;28;20273;-71
2021/11/08 01:49:39;;;;;;;13.02;7.97;;;;;;;4.73;100.00;96166.22;1030587;28;20095;-69
2021/11/08 01:50:09;;;;;;;24.95;9.25;;;;;;;4.67;100.00;96167.88;1030223;28;20126;-69
2021/11/08 01:50:40;;;;;;;16.40;7.65;;;;;;;4.79;100.00;96177.53;1030219;28;20308;-71
2021/11/08 01:51:10;;;;;;;15.90;7.85;;;;;;;4.75;100.00;96177.19;1030642;28;20022;-68
2021/11/08 01:51:42;;;;;;;17.65;8.65;;;;;;;4.80;100.00;96179.16;1029729;28;20030;-69
2021/11/08 01:52:12;;;;;;;10.52;7.53;;;;;;;4.81;100.00;96172.94;1018469;29;20019;-69
2021/11/08 01:52:43;;;;;;;12.20;7.95;;;;;;;4.80;100.00;96174.75;1021401;29;20287;-69
2021/11/08 01:53:13;;;;;;;11.00;8.05;;;;;;;4.79;100.00;96169.75;1022678;28;20019;-69
2021/11/08 01:53:44;;;;;;;12.98;8.73;;;;;;;4.78;100.00;96171.56;1026443;28;20019;-69
2021/11/08 01:54:14;;;;;;;12.68;8.30;;;;;;;4.75;100.00;96173.78;1034625;28;20429;-69
2021/11/08 01:54:45;;;;;;;12.10;8.82;;;;;;;4.78;100.00;96174.16;1030472;28;20481;-71
2021/11/08 01:55:15;;;;;;;11.35;7.55;;;;;;;4.77;100.00;96172.56;1034398;28;20029;-68
2021/11/08 01:55:46;;;;;;;12.15;8.07;;;;;;;4.78;100.00;96171.56;1030478;28;20422;-70
2021/11/08 01:56:16;;;;;;;11.35;8.52;;;;;;;4.78;100.00;96173.34;1018786;29;20027;-70
2021/11/08 01:56:47;;;;;;;12.90;8.82;;;;;;;4.82;100.00;96171.91;1022528;29;20038;-69
2021/11/08 01:57:17;;;;;;;11.02;7.90;;;;;;;4.78;100.00;96166.34;1014617;29;20016;-69
2021/11/08 01:57:48;;;;;;;12.07;8.57;;;;;;;4.83;100.00;96183.91;1019909;28;20074;-68
2021/11/08 01:58:20;;;;;;;22.60;8.90;;;;;;;4.78;100.00;96168.94;1026454;28;20023;-69
2021/11/08 01:58:50;;;;;;;13.23;8.80;;;;;;;4.80;100.00;96179.94;1023716;28;20076;-69
2021/11/08 01:59:22;;;;;;;13.63;7.90;;;;;;;4.82;100.00;96177.13;1026373;28;20273;-69
2021/11/08 01:59:52;;;;;;;11.98;8.32;;;;;;;4.78;100.00;96178.56;1026697;28;20022;-69
2021/11/08 02:00:26;;;;;;;16.02;8.85;;;;;;;4.81;100.00;96178.13;1027940;28;20757;-69
2021/11/08 02:00:57;;;;;;;11.70;8.50;;;;;;;4.80;100.00;96177.34;1030583;28;20019;-69
2021/11/08 02:01:27;;;;;;;13.95;8.38;;;;;;;4.82;100.00;96182.31;1029715;28;20273;-68
2021/11/08 02:01:57;;;;;;;13.77;7.78;;;;;;;4.80;100.00;96182.53;1030744;28;20444;-68
2021/11/08 02:02:28;;;;;;;10.85;8.02;;;;;;;4.81;100.00;96189.31;1030128;28;20018;-70
2021/11/08 02:02:58;;;;;;;10.70;7.97;;;;;;;4.81;100.00;96189.31;1034351;28;20017;-69
2021/11/08 02:03:29;;;;;;;10.18;7.78;;;;;;;4.77;100.00;96177.78;1034112;28;20025;-69
2021/11/08 02:04:00;;;;;;;9.85;7.60;;;;;;;4.84;100.00;96199.28;1030362;28;20453;-69
2021/11/08 02:04:31;;;;;;;12.68;8.13;;;;;;;4.83;100.00;96184.72;1030252;28;20023;-69
2021/11/08 02:05:03;;;;;;;14.45;8.40;;;;;;;4.82;100.00;96190.91;1022542;29;20615;-72
2021/11/08 02:05:33;;;;;;;13.00;7.95;;;;;;;4.81;100.00;96194.53;1022818;28;20019;-68
2021/11/08 02:06:04;;;;;;;13.18;8.13;;;;;;;4.72;100.00;96186.19;1022608;28;20259;-69
2021/11/08 02:06:34;;;;;;;11.18;8.40;;;;;;;4.74;100.00;96188.59;1013221;29;20012;-68
2021/11/08 02:07:05;;;;;;;9.98;7.97;;;;;;;4.82;100.00;96190.91;1018366;29;20030;-69
2021/11/08 02:07:36;;;;;;;11.02;8.25;;;;;;;4.75;100.00;96182.38;1021713;28;20011;-68
2021/11/08 02:08:07;;;;;;;9.85;7.15;;;;;;;4.82;100.00;96196.09;1022579;28;20019;-69
2021/11/08 02:08:38;;;;;;;11.35;8.20;;;;;;;4.82;100.00;96196.09;1030252;28;20264;-68
2021/11/08 02:09:09;;;;;;;11.75;7.80;;;;;;;4.82;100.00;96198.69;1027399;28;20609;-69
2021/11/08 02:09:39;;;;;;;21.85;8.65;;;;;;;4.77;100.00;96193.38;1028474;28;20328;-70
2021/11/08 02:10:11;;;;;;;11.93;7.32;;;;;;;4.81;100.00;96193.72;1027761;28;20030;-71
2021/11/08 02:10:42;;;;;;;11.10;8.40;;;;;;;4.82;100.00;96196.09;1031155;28;20037;-68
2021/11/08 02:11:13;;;;;;;12.75;7.72;;;;;;;4.81;100.00;96188.53;1027455;28;20285;-70
2021/11/08 02:11:43;;;;;;;12.07;8.20;;;;;;;4.80;100.00;96192.94;1027162;28;20086;-69
2021/11/08 02:12:15;;;;;;;11.77;7.93;;;;;;;4.84;100.00;96199.28;1019324;29;20099;-69
2021/11/08 02:12:45;;;;;;;14.45;7.97;;;;;;;4.84;100.00;96194.09;1019256;29;20109;-69
2021/11/08 02:13:15;;;;;;;13.27;8.30;;;;;;;4.84;100.00;96191.50;1023422;28;20738;-69
2021/11/08 02:13:47;;;;;;;12.82;8.40;;;;;;;4.78;100.00;96184.56;1031213;28;20033;-70
2021/11/08 02:14:17;;;;;;;10.60;7.95;;;;;;;4.86;100.00;96192.09;1031102;28;20023;-68
2021/11/08 02:14:48;;;;;;;15.10;8.10;;;;;;;4.88;100.00;96195.25;1021246;29;20848;-70
2021/11/08 02:15:19;;;;;;;10.32;8.25;;;;;;;4.87;100.00;96188.47;1019840;28;20027;-70
2021/11/08 02:15:50;;;;;;;10.32;7.40;;;;;;;4.89;100.00;96194.22;1019505;29;20024;-69
2021/11/08 02:16:20;;;;;;;12.32;7.82;;;;;;;4.93;100.00;96192.03;1023111;28;20031;-70
2021/11/08 02:16:51;;;;;;;9.95;7.53;;;;;;;4.92;100.00;96199.00;1023322;29;20023;-69
2021/11/08 02:17:21;;;;;;;16.90;8.70;;;;;;;4.93;100.00;96195.41;1019384;28;20031;-70
2021/11/08 02:17:52;;;;;;;21.60;8.25;;;;;;;4.95;100.00;96201.19;1022060;28;20411;-69
2021/11/08 02:18:23;;;;;;;12.90;8.07;;;;;;;4.92;100.00;96201.59;1023175;28;20024;-69
2021/11/08 02:18:54;;;;;;;14.00;7.68;;;;;;;4.92;100.00;96195.63;1027155;28;20085;-70
2021/11/08 02:19:27;;;;;;;10.35;6.75;;;;;;;4.90;100.00;96193.25;1031367;28;20343;-69
2021/11/08 02:19:58;;;;;;;12.20;8.00;;;;;;;4.90;100.00;96203.66;1031112;28;20050;-70
2021/11/08 02:20:30;;;;;;;9.98;8.00;;;;;;;4.81;100.00;96193.72;1022916;29;20265;-69
2021/11/08 02:21:02;;;;;;;17.13;9.38;;;;;;;4.86;100.00;96202.50;1018803;29;20031;-69
2021/11/08 02:21:33;;;;;;;25.15;9.23;;;;;;;4.84;100.00;96194.09;1023182;29;20273;-69
2021/11/08 02:22:05;;;;;;;14.13;8.82;;;;;;;4.86;100.00;96201.66;1019584;28;21017;-69
2021/11/08 02:22:35;;;;;;;11.65;7.68;;;;;;;4.83;100.00;96207.28;1026984;28;20517;-69
2021/11/08 02:23:07;;;;;;;16.08;9.05;;;;;;;4.83;100.00;96208.13;1031034;28;20559;-69
2021/11/08 02:23:41;;;;;;;32.35;9.90;;;;;;;4.63;100.00;96174.50;1027207;28;20031;-70
2021/11/08 02:24:16;;;;;;;18.90;9.13;;;;;;;4.81;100.00;96202.31;1021252;29;20408;-69
2021/11/08 02:24:47;;;;;;;12.30;7.50;;;;;;;4.77;100.00;96202.97;1019083;29;20636;-68
2021/11/08 02:25:18;;;;;;;13.57;8.63;;;;;;;4.77;100.00;96198.56;1017241;29;20326;-70
2021/11/08 02:25:50;;;;;;;14.02;8.57;;;;;;;4.76;100.00;96204.75;1025195;28;20163;-69
2021/11/08 02:26:20;;;;;;;18.30;8.63;;;;;;;4.71;100.00;96204.63;1030987;28;20268;-69
2021/11/08 02:26:51;;;;;;;12.88;8.63;;;;;;;4.68;100.00;96205.03;1030235;28;20272;-69
2021/11/08 02:27:21;;;;;;;14.70;8.43;;;;;;;4.68;100.00;96205.03;1023103;29;20042;-69
2021/11/08 02:27:52;;;;;;;19.98;9.57;;;;;;;4.67;100.00;96203.47;1018021;29;20028;-69
2021/11/08 02:28:23;;;;;;;11.30;8.10;;;;;;;4.65;100.00;96205.47;1017279;29;20035;-69
2021/11/08 02:28:53;;;;;;;16.83;9.35;;;;;;;4.65;100.00;96203.66;1019323;28;20087;-69
2021/11/08 02:29:24;;;;;;;16.90;9.15;;;;;;;4.60;100.00;96198.31;1027221;28;20034;-69
2021/11/08 02:29:55;;;;;;;14.98;8.23;;;;;;;4.59;100.00;96199.31;1023290;29;20027;-68
2021/11/08 02:30:28;;;;;;;12.20;8.50;;;;;;;4.55;100.00;96199.94;1020971;29;20104;-69